Oakland County International Airport
KPTK : now visible

Airfield :











YOU CAN JOIN US ON...

 
LOGIN :

Register | Disclaimer

   EN    FR    IT 

 









Legend :    VFR   Marginal VFR   IFR   Intensive IFR   Very Intensive IFR
Visi :
Ceiling :
>= 8 km
>= 3000ft
5 to 8 km
1000 to 3000 ft
1500m to 5 km
500 to 1000 ft
800 to 1500m
200 to 500 ft
< 800m
< 200 ft
Symbols :   Thunderstorms  Fog  Heavy snow  Heavy precipitations  Wind > 20 kt







- Airport Elevation : 980 ft


KPTK - Oakland County International

CURRENT METAR :
  • 191353Z 35012KT 10SM OVC008 04/03 A2966 RMK AO2 PRESRR SLP046 T00440033

EXPIRED METARs :
  • 191253Z 36010KT 10SM BKN009 OVC014 04/03 A2964 RMK AO2 RAE36 SLP041 P0002 T00440033
  • 191153Z 36010G16KT 10SM -RA BKN009 OVC014 04/04 A2964 RMK AO2 SLP041 P0002 60027 70054 T00440039 10061 20044 51013

TAF KPTK
Valid from the 19 at 13:00 until the 20 at 12:00 UTC


191303Z 1913/2012 36012KT P6SM BKN008 OVC012
FM191500 01016G26KT P6SM OVC014
FM200100 01015G22KT P6SM BKN018 OVC040
FM200900 02015G25KT 5SM -RA OVC010
KZOB FIR / North America



MET'MAP, your aeronautical weather chart ! - Copyright ORBIFLY December 2007 - Disclaimer

ORBIFLY MET'MAP TEAM :

Programming & Development : Alexandra Zaïnal
Concept & Development : Baudouin d'Aumeries
Co-Development & Prog : Marc-Olivier Méhu
Technical & hardware support : Manuel Goepfert

Contact : metmap@orbifly.com




SOURCES & CREDITS :

   NOAA       Earth
Advisory